Terminal Aerodrome Forecast
Issued by NWS

Home | Current Version | Previous Version | Graphics & Text | Print | Product List | Glossary On
Versions: 1 2 3 4 5 6 7 8 9 10 11 12 13 14 15 16 17 18 19 20 21 22 23 24 25 26 27 28 29 30 31 32 33 34 35 36 37 38
000
FTUS43 KPAH 020034 AAA
TAFOWB
TAF AMD
KOWB 020034Z 0201/0224 21005KT P6SM -SHRA FEW045 BKN100
     FM020400 VRB04KT 4SM SHRA BR VCTS SCT015CB BKN070
      TEMPO 0204/0208 VRB15G25KT 2SM TSRA BKN010CB
     FM020800 VRB03KT 5SM -SHRA BR BKN015
     FM021500 23011G18KT P6SM BKN035=

USA.gov is the U.S. government's official web portal to all federal, state and local government web resources and services.